Time;durP1;ratioP1;P1;durP2;ratioP2;P2;SDS_P1;SDS_P2;PMS_P1;PMS_P2;Temp;Humidity;BMP_temperature;BMP_pressure;BME280_temperature;BME280_humidity;BME280_pressure;Samples;Min_cycle;Max_cycle;Signal;HPM_P1;HPM_P2
2021/11/28 00:02:26;;;;;;;6.35;5.40;;;;;;;4.38;75.98;98778.59;5091510;28;20578;-53
2021/11/28 00:04:52;;;;;;;6.68;5.78;;;;;;;4.39;75.73;98781.19;5091034;28;20027;-53
2021/11/28 00:07:27;;;;;;;5.93;5.25;;;;;;;4.38;75.82;98795.16;5085285;28;20024;-53
2021/11/28 00:14:54;;;;;;;6.70;5.20;;;;;;;4.37;75.88;98798.66;5089779;28;20028;-51
2021/11/28 00:17:19;;;;;;;5.97;5.35;;;;;;;4.36;75.69;98794.28;5090855;28;20513;-52
2021/11/28 00:19:45;;;;;;;6.68;5.68;;;;;;;4.36;75.33;98797.78;5089660;28;20032;-51
2021/11/28 00:22:10;;;;;;;6.90;6.20;;;;;;;4.38;75.50;98805.59;5072221;28;20399;-52
2021/11/28 00:24:36;;;;;;;6.43;5.53;;;;;;;4.36;75.30;98792.56;5089133;28;20514;-51
2021/11/28 00:27:02;;;;;;;6.82;6.03;;;;;;;4.38;75.94;98794.28;5088339;28;20036;-52
2021/11/28 00:29:28;;;;;;;6.07;5.00;;;;;;;4.36;75.70;98794.28;5088555;28;20043;-51
2021/11/28 00:31:55;;;;;;;7.85;5.57;;;;;;;4.36;75.88;98807.34;5091964;28;20376;-51
2021/11/28 00:34:21;;;;;;;7.00;5.47;;;;;;;4.35;75.79;98806.50;5089851;28;20027;-50
2021/11/28 00:36:46;;;;;;;6.28;5.68;;;;;;;4.35;76.59;98806.50;5091041;28;20489;-51
2021/11/28 00:39:11;;;;;;;7.78;5.88;;;;;;;4.35;75.58;98806.50;5087815;28;20031;-51
2021/11/28 00:41:37;;;;;;;6.57;5.57;;;;;;;4.35;75.68;98805.63;5091153;28;20108;-52
2021/11/28 00:44:02;;;;;;;7.50;5.68;;;;;;;4.36;75.84;98807.34;5089847;28;20024;-51
2021/11/28 00:46:27;;;;;;;7.15;5.88;;;;;;;4.35;76.04;98809.09;5087966;28;20024;-51
2021/11/28 00:48:53;;;;;;;6.80;5.57;;;;;;;4.35;76.00;98795.19;5069787;28;20024;-51
2021/11/28 00:53:49;;;;;;;6.53;5.93;;;;;;;4.35;75.73;98808.22;5089493;28;20020;-53
2021/11/28 00:56:14;;;;;;;6.20;5.23;;;;;;;4.34;75.41;98801.28;5089080;28;20031;-51
2021/11/28 00:58:39;;;;;;;8.45;7.05;;;;;;;4.35;76.32;98810.84;5072667;28;20262;-52
2021/11/28 01:01:05;;;;;;;7.45;5.93;;;;;;;4.32;75.54;98806.53;5089857;28;20036;-52
2021/11/28 01:03:30;;;;;;;6.22;5.63;;;;;;;4.34;75.50;98809.13;5091001;28;20020;-53
2021/11/28 01:05:55;;;;;;;7.38;5.90;;;;;;;4.33;75.63;98817.81;5072350;28;20099;-51
2021/11/28 01:08:21;;;;;;;9.10;6.72;;;;;;;4.34;75.25;98822.16;5089983;28;20020;-53
2021/11/28 01:10:47;;;;;;;9.13;6.25;;;;;;;4.34;75.70;98820.41;5089172;28;20024;-51
2021/11/28 01:13:17;;;;;;;7.13;6.07;;;;;;;4.33;75.27;98820.41;5088358;28;20028;-51
2021/11/28 01:15:42;;;;;;;9.63;6.10;;;;;;;4.32;75.23;98814.38;5089467;28;20552;-51
2021/11/28 01:18:08;;;;;;;7.47;5.97;;;;;;;4.32;75.82;98816.97;5088672;28;20052;-51
2021/11/28 01:20:33;;;;;;;7.20;5.85;;;;;;;4.31;75.10;98815.25;5072972;28;20089;-53
2021/11/28 01:22:59;;;;;;;6.53;5.93;;;;;;;4.31;75.68;98819.59;5071491;28;20498;-53
2021/11/28 01:25:24;;;;;;;8.75;6.68;;;;;;;4.32;75.52;98827.41;5071720;28;20059;-52
2021/11/28 01:27:49;;;;;;;6.80;6.10;;;;;;;4.30;75.23;98828.31;5089981;28;20372;-50
2021/11/28 01:30:15;;;;;;;7.78;6.43;;;;;;;4.32;75.36;98826.53;5054266;28;20043;-51
2021/11/28 01:32:41;;;;;;;6.70;5.85;;;;;;;4.31;75.30;98830.03;5072238;28;20024;-50
2021/11/28 01:35:08;;;;;;;8.00;5.90;;;;;;;4.31;75.43;98825.69;5089693;28;20024;-51
2021/11/28 01:37:35;;;;;;;8.23;6.63;;;;;;;4.27;75.65;98823.97;5068622;28;20487;-51
2021/11/28 01:40:08;;;;;;;7.63;5.60;;;;;;;4.29;75.92;98826.56;5089492;28;20106;-52
2021/11/28 01:42:43;;;;;;;8.13;6.38;;;;;;;4.29;75.62;98826.56;5072250;28;20491;-52
2021/11/28 01:45:15;;;;;;;6.47;5.75;;;;;;;4.27;76.12;98831.81;5089650;28;20399;-52
2021/11/28 01:47:40;;;;;;;6.82;5.90;;;;;;;4.27;74.76;98836.19;5090532;28;20012;-51
2021/11/28 01:50:07;;;;;;;7.05;5.55;;;;;;;4.28;75.44;98830.06;5089285;28;20020;-53
2021/11/28 01:52:35;;;;;;;10.55;6.57;;;;;;;4.28;75.45;98830.06;5089468;28;20020;-52
2021/11/28 01:55:01;;;;;;;6.80;6.15;;;;;;;4.28;75.51;98836.16;5089210;28;20027;-51
2021/11/28 01:57:26;;;;;;;7.30;5.82;;;;;;;4.27;75.92;98833.56;5089707;28;20028;-52
2021/11/28 01:59:51;;;;;;;7.90;6.13;;;;;;;4.26;74.79;98824.88;5088956;28;20756;-52
2021/11/28 02:02:17;;;;;;;7.85;6.38;;;;;;;4.26;75.69;98826.63;5086597;28;20043;-51
2021/11/28 02:04:43;;;;;;;7.35;5.93;;;;;;;4.26;75.46;98831.84;5088830;28;20050;-51
2021/11/28 02:07:08;;;;;;;8.05;5.97;;;;;;;4.26;75.20;98831.84;5087312;28;20032;-51
2021/11/28 02:09:36;;;;;;;7.10;6.40;;;;;;;4.25;75.79;98830.97;5072821;28;20035;-52
2021/11/28 02:12:02;;;;;;;7.72;6.35;;;;;;;4.24;75.25;98840.53;5089734;28;20031;-52
2021/11/28 02:14:27;;;;;;;8.43;6.28;;;;;;;4.24;76.03;98837.94;5072939;28;20027;-53
2021/11/28 02:16:52;;;;;;;8.20;6.32;;;;;;;4.23;75.03;98828.38;5086989;28;20030;-54
2021/11/28 02:19:18;;;;;;;7.53;6.45;;;;;;;4.26;75.58;98837.06;5088238;28;20047;-51
2021/11/28 02:21:43;;;;;;;6.63;5.45;;;;;;;4.23;75.67;98833.59;5088746;28;20031;-53
2021/11/28 02:24:08;;;;;;;7.55;5.95;;;;;;;4.24;75.20;98829.25;5070942;28;20617;-54
2021/11/28 02:26:34;;;;;;;8.23;7.03;;;;;;;4.23;75.61;98830.13;5089164;28;20028;-53
2021/11/28 02:28:59;;;;;;;6.80;6.10;;;;;;;4.22;75.44;98824.06;5089339;28;20077;-53
2021/11/28 02:31:24;;;;;;;8.05;6.40;;;;;;;4.19;75.15;98818.88;5089355;28;20016;-53
2021/11/28 02:33:50;;;;;;;8.13;6.80;;;;;;;4.21;75.44;98822.31;5088670;28;20051;-56
2021/11/28 02:36:16;;;;;;;7.03;5.57;;;;;;;4.19;75.34;98818.88;5070569;28;20048;-50
2021/11/28 02:38:41;;;;;;;9.43;6.15;;;;;;;4.20;76.06;98817.97;5088943;28;20036;-50
2021/11/28 02:41:07;;;;;;;7.05;5.88;;;;;;;4.19;75.66;98811.03;5085839;28;20141;-50
2021/11/28 02:43:33;;;;;;;7.25;6.40;;;;;;;4.20;75.58;98812.75;5088822;28;20012;-53
2021/11/28 02:46:00;;;;;;;6.47;5.72;;;;;;;4.19;75.65;98811.03;5088389;28;20406;-51
2021/11/28 02:48:25;;;;;;;8.07;6.10;;;;;;;4.19;75.09;98805.81;5088545;28;20024;-50
2021/11/28 02:50:51;;;;;;;7.72;6.60;;;;;;;4.19;75.58;98805.81;5086921;28;20291;-50
2021/11/28 02:53:16;;;;;;;6.97;5.97;;;;;;;4.16;75.15;98800.66;5069760;28;20031;-51
2021/11/28 02:55:48;;;;;;;7.10;6.07;;;;;;;4.17;75.49;98812.78;5054304;28;20036;-53
2021/11/28 02:58:13;;;;;;;;;;;;;;;4.18;75.27;98809.31;5088964;28;20483;-53
2021/11/28 03:00:42;;;;;;;6.65;5.43;;;;;;;4.17;75.27;98811.97;5070596;28;19931;-52
2021/11/28 03:03:08;;;;;;;7.13;6.13;;;;;;;4.16;74.94;98810.22;5089197;28;20062;-54
2021/11/28 03:05:33;;;;;;;8.98;6.53;;;;;;;4.15;75.48;98796.31;5066148;28;20077;-53
2021/11/28 03:07:59;;;;;;;8.35;6.63;;;;;;;4.16;75.19;98799.78;5071531;28;20543;-54
2021/11/28 03:10:38;;;;;;;7.22;6.35;;;;;;;4.16;75.45;98799.78;5088411;28;20031;-54
2021/11/28 03:13:06;;;;;;;8.40;6.72;;;;;;;4.15;75.62;98804.13;5086921;28;20024;-54
2021/11/28 03:15:32;;;;;;;8.02;7.18;;;;;;;4.13;74.65;98805.06;5070489;28;20031;-51
2021/11/28 03:17:57;;;;;;;7.45;5.82;;;;;;;4.14;74.99;98807.66;5089282;28;20036;-52
2021/11/28 03:20:23;;;;;;;7.47;6.65;;;;;;;4.15;75.83;98811.97;5090802;28;20123;-52
2021/11/28 03:22:50;;;;;;;7.72;6.85;;;;;;;4.14;74.74;98806.78;5092617;28;20364;-52
2021/11/28 03:25:18;;;;;;;8.95;7.10;;;;;;;4.14;75.47;98810.25;5092312;28;20028;-53
2021/11/28 03:27:44;;;;;;;8.73;6.95;;;;;;;4.14;75.39;98797.22;5092851;28;20082;-52
2021/11/28 03:30:10;;;;;;;9.70;6.80;;;;;;;4.15;75.40;98803.28;5092345;28;20016;-52
2021/11/28 03:32:35;;;;;;;9.30;7.35;;;;;;;4.14;74.34;98806.78;5074365;28;20015;-51
2021/11/28 03:35:00;;;;;;;9.77;6.57;;;;;;;4.12;75.37;98814.63;5073460;28;20032;-52
2021/11/28 03:37:26;;;;;;;7.60;5.97;;;;;;;4.11;74.73;98818.97;5074214;28;20020;-50
2021/11/28 03:39:51;;;;;;;7.97;6.40;;;;;;;4.11;75.54;98818.13;5091710;28;20060;-50
2021/11/28 03:42:16;;;;;;;7.00;6.18;;;;;;;4.11;74.94;98828.56;5092031;28;20069;-51
2021/11/28 03:44:42;;;;;;;8.38;7.10;;;;;;;4.12;75.02;98832.88;5091237;28;20486;-51
2021/11/28 03:47:07;;;;;;;8.75;6.93;;;;;;;4.08;74.76;98829.47;5089950;28;20108;-50
2021/11/28 03:49:32;;;;;;;9.00;6.97;;;;;;;4.09;75.45;98825.09;5073549;28;20506;-52
2021/11/28 03:51:58;;;;;;;7.43;6.57;;;;;;;4.08;74.85;98824.25;5089520;28;20471;-53
2021/11/28 03:54:24;;;;;;;6.65;5.95;;;;;;;4.09;74.82;98822.47;5092396;28;20119;-52
2021/11/28 03:56:49;;;;;;;7.57;6.75;;;;;;;4.10;74.71;98830.28;5091509;28;20023;-56
2021/11/28 03:59:15;;;;;;;9.35;6.82;;;;;;;4.09;75.37;98830.31;5068321;28;20043;-51
2021/11/28 04:01:41;;;;;;;8.98;7.50;;;;;;;4.07;74.89;98821.66;5084457;28;20064;-52
2021/11/28 04:04:06;;;;;;;7.22;6.53;;;;;;;4.07;75.29;98822.50;5091944;28;20026;-54
2021/11/28 04:06:31;;;;;;;9.63;6.95;;;;;;;4.06;74.77;98823.38;5073546;28;20491;-53
2021/11/28 04:08:57;;;;;;;8.35;6.70;;;;;;;4.07;74.92;98826.88;5091539;28;20028;-54
2021/11/28 04:11:22;;;;;;;8.25;6.68;;;;;;;4.05;74.73;98816.44;5089176;28;20466;-52
2021/11/28 04:13:48;;;;;;;8.43;7.38;;;;;;;4.05;74.76;98808.63;5091928;28;20107;-53
2021/11/28 04:16:13;;;;;;;8.48;7.10;;;;;;;4.04;74.82;98806.88;5091382;28;20413;-50
2021/11/28 04:18:39;;;;;;;7.25;6.47;;;;;;;4.06;75.04;98814.69;5058719;28;20077;-53
2021/11/28 04:21:05;;;;;;;9.57;7.32;;;;;;;4.03;75.18;98804.31;5074899;28;20078;-50
2021/11/28 04:23:30;;;;;;;7.47;6.50;;;;;;;4.02;75.19;98797.34;5073467;28;20012;-51
2021/11/28 04:25:55;;;;;;;9.57;7.20;;;;;;;4.04;74.69;98804.25;5087755;28;20024;-52
2021/11/28 04:28:21;;;;;;;8.77;6.35;;;;;;;4.00;74.92;98810.41;5092163;28;20028;-50
2021/11/28 04:30:46;;;;;;;8.38;6.53;;;;;;;4.03;75.17;98809.53;5091288;28;20028;-51
2021/11/28 04:33:14;;;;;;;10.93;6.93;;;;;;;4.01;75.22;98800.84;5091501;28;20103;-52
2021/11/28 04:35:40;;;;;;;7.60;6.63;;;;;;;4.02;75.29;98818.22;5091024;28;20483;-51
2021/11/28 04:38:06;;;;;;;8.75;6.82;;;;;;;4.02;74.85;98815.59;5065972;28;20024;-50
2021/11/28 04:40:31;;;;;;;8.45;6.38;;;;;;;4.02;74.76;98818.22;5057280;28;20024;-53
2021/11/28 04:42:57;;;;;;;7.50;6.40;;;;;;;4.00;74.66;98817.38;5090711;28;20020;-54
2021/11/28 04:45:22;;;;;;;11.05;7.35;;;;;;;4.00;74.92;98825.22;5090525;28;20024;-54
2021/11/28 04:47:47;;;;;;;9.43;7.35;;;;;;;4.00;75.11;98814.78;5091101;28;20031;-54
2021/11/28 04:50:13;;;;;;;8.38;6.90;;;;;;;4.00;74.94;98820.00;5087100;28;20032;-52
2021/11/28 04:52:39;;;;;;;9.07;7.15;;;;;;;3.98;75.74;98814.78;5071475;28;20021;-52
2021/11/28 04:55:07;;;;;;;7.63;6.38;;;;;;;3.98;74.57;98822.63;5091314;28;20028;-52
2021/11/28 04:57:32;;;;;;;7.50;6.65;;;;;;;3.97;74.43;98816.53;5069636;28;20036;-50
2021/11/28 04:59:57;;;;;;;9.50;7.22;;;;;;;3.97;74.76;98821.75;5071011;28;20447;-53
2021/11/28 05:02:23;;;;;;;7.88;6.53;;;;;;;3.93;75.09;98814.84;5090076;28;20551;-54
2021/11/28 05:04:48;;;;;;;8.68;7.30;;;;;;;3.95;74.56;98815.69;5091210;28;20119;-51
2021/11/28 05:07:13;;;;;;;8.68;6.80;;;;;;;3.95;74.46;98813.09;5090631;28;20077;-51
2021/11/28 05:09:38;;;;;;;7.68;6.82;;;;;;;3.95;74.33;98818.31;5090580;28;20024;-51
2021/11/28 05:12:04;;;;;;;7.90;6.82;;;;;;;3.95;74.88;98817.44;5074015;28;20020;-52
2021/11/28 05:14:29;;;;;;;7.57;6.53;;;;;;;3.94;74.58;98820.94;5089996;28;20032;-50
2021/11/28 05:16:55;;;;;;;9.65;7.82;;;;;;;3.94;74.93;98824.38;5072020;28;20539;-52
2021/11/28 05:19:20;;;;;;;8.68;6.57;;;;;;;3.93;74.13;98821.78;5090377;28;20517;-53
2021/11/28 05:21:45;;;;;;;8.73;7.28;;;;;;;3.91;74.58;98821.84;5090542;28;20085;-52
2021/11/28 05:24:11;;;;;;;12.27;8.45;;;;;;;3.91;74.32;98815.75;5089888;28;20024;-51
2021/11/28 05:26:37;;;;;;;13.57;9.60;;;;;;;3.91;74.88;98827.06;5087553;28;20023;-52
2021/11/28 05:29:03;;;;;;;13.35;9.65;;;;;;;3.91;74.99;98832.25;5090013;28;20036;-52
2021/11/28 05:31:28;;;;;;;15.25;8.95;;;;;;;3.92;74.08;98839.19;5085849;28;20601;-52
2021/11/28 05:33:55;;;;;;;13.07;10.07;;;;;;;3.92;74.62;98846.16;5087731;28;20103;-52
2021/11/28 05:36:20;;;;;;;16.85;11.15;;;;;;;3.91;74.51;98860.09;5089797;28;20395;-52
2021/11/28 05:38:46;;;;;;;17.65;11.63;;;;;;;3.88;74.61;98852.28;5115574;22;20039;-53
2021/11/28 05:41:11;;;;;;;18.30;11.57;;;;;;;3.89;74.95;98859.22;5110964;28;20031;-52
2021/11/28 05:43:39;;;;;;;12.68;9.52;;;;;;;3.89;74.50;98854.88;5092619;28;20023;-50
2021/11/28 05:46:05;;;;;;;16.27;10.65;;;;;;;3.87;74.96;98851.41;5086438;28;20024;-50
2021/11/28 05:48:31;;;;;;;14.52;10.95;;;;;;;3.87;74.83;98859.22;5083722;28;20024;-53
2021/11/28 05:50:57;;;;;;;14.52;10.90;;;;;;;3.87;74.76;98851.41;5108141;28;20020;-52
2021/11/28 05:53:23;;;;;;;15.38;11.10;;;;;;;3.88;74.77;98860.13;5107388;28;20032;-52
2021/11/28 05:55:49;;;;;;;16.48;10.95;;;;;;;3.85;75.07;98859.28;5104016;28;20031;-52
2021/11/28 05:58:14;;;;;;;16.38;10.38;;;;;;;3.87;74.84;98867.06;5109158;28;20023;-52
2021/11/28 06:00:40;;;;;;;17.00;11.75;;;;;;;3.88;75.36;98858.38;5102200;28;20486;-53
2021/11/28 06:03:05;;;;;;;15.25;10.05;;;;;;;3.87;74.86;98861.00;5097871;28;20166;-50
2021/11/28 06:05:31;;;;;;;14.18;10.13;;;;;;;3.87;74.77;98861.84;5105380;28;20026;-53
2021/11/28 06:07:56;;;;;;;14.38;10.70;;;;;;;3.84;74.61;98867.13;5106579;28;20028;-52
2021/11/28 06:10:22;;;;;;;15.82;10.40;;;;;;;3.85;74.51;98879.28;5104856;28;20486;-54
2021/11/28 06:12:47;;;;;;;15.55;10.52;;;;;;;3.84;74.79;98882.75;5082653;28;20035;-54
2021/11/28 06:15:13;;;;;;;12.77;9.60;;;;;;;3.85;75.42;98879.28;5101232;28;20034;-53
2021/11/28 06:17:38;;;;;;;15.15;10.30;;;;;;;3.85;74.52;98881.88;5101623;28;20038;-54
2021/11/28 06:20:05;;;;;;;12.20;8.88;;;;;;;3.83;74.62;98881.88;5081096;28;20096;-52
2021/11/28 06:22:30;;;;;;;14.05;9.40;;;;;;;3.83;75.16;98888.84;5102347;28;20603;-51
2021/11/28 06:24:55;;;;;;;13.23;8.88;;;;;;;3.81;74.69;98890.63;5082412;28;20107;-52
2021/11/28 06:27:21;;;;;;;12.95;9.15;;;;;;;3.82;74.62;98892.34;5105984;28;20080;-52
2021/11/28 06:29:47;;;;;;;12.07;9.60;;;;;;;3.80;74.79;98891.50;5102998;28;20054;-52
2021/11/28 06:32:12;;;;;;;10.90;8.43;;;;;;;3.79;74.32;98888.03;5101297;28;20482;-51
2021/11/28 06:34:38;;;;;;;13.30;8.65;;;;;;;3.81;74.72;98890.63;5100837;28;20506;-51
2021/11/28 06:37:03;;;;;;;11.23;8.25;;;;;;;3.81;74.92;98888.00;5085251;28;20483;-52
2021/11/28 06:39:29;;;;;;;12.55;8.63;;;;;;;3.80;75.15;98886.28;5098068;28;20544;-52
2021/11/28 06:41:54;;;;;;;10.05;8.38;;;;;;;3.79;74.75;98879.31;5102107;28;20020;-53
2021/11/28 06:44:19;;;;;;;9.57;8.52;;;;;;;3.80;74.44;98883.69;5100635;28;20522;-51
2021/11/28 06:46:45;;;;;;;11.40;8.52;;;;;;;3.80;74.76;98875.84;5094113;28;20016;-52
2021/11/28 06:49:10;;;;;;;11.55;8.13;;;;;;;3.78;75.00;98873.25;5101715;28;20024;-52
2021/11/28 06:51:35;;;;;;;11.40;8.05;;;;;;;3.79;74.94;98874.09;5100792;28;21432;-52
2021/11/28 06:54:01;;;;;;;9.20;7.82;;;;;;;3.79;74.47;98880.19;5101118;28;20069;-52
2021/11/28 06:56:26;;;;;;;10.27;8.73;;;;;;;3.76;74.84;98874.16;5107297;28;20497;-53
2021/11/28 06:58:51;;;;;;;10.52;7.82;;;;;;;3.77;74.70;98883.72;5100332;28;20058;-54
2021/11/28 07:01:17;;;;;;;9.02;8.07;;;;;;;3.74;74.45;98874.19;5105844;28;20376;-53
2021/11/28 07:03:42;;;;;;;10.63;7.38;;;;;;;3.76;75.25;98884.59;5102089;28;20054;-53
2021/11/28 07:06:07;;;;;;;10.65;7.95;;;;;;;3.76;74.55;98876.78;5103422;28;20144;-54
2021/11/28 07:08:33;;;;;;;9.98;7.93;;;;;;;3.74;74.79;98881.13;5106155;28;20091;-53
2021/11/28 07:10:58;;;;;;;10.30;8.63;;;;;;;3.72;74.29;98874.19;5104404;28;20035;-51
2021/11/28 07:13:27;;;;;;;9.88;7.65;;;;;;;3.74;74.62;98876.78;5107846;28;20455;-49
2021/11/28 07:15:52;;;;;;;11.23;7.60;;;;;;;3.70;74.27;98872.47;5102064;28;20127;-50
2021/11/28 07:18:18;;;;;;;12.43;7.70;;;;;;;3.71;74.47;98880.25;5089327;28;20558;-50
2021/11/28 07:20:43;;;;;;;9.73;7.90;;;;;;;3.71;74.91;98877.66;5101717;28;20432;-52
2021/11/28 07:23:08;;;;;;;10.55;8.52;;;;;;;3.71;74.13;98876.81;5104748;28;20038;-51
2021/11/28 07:25:34;;;;;;;9.65;8.48;;;;;;;3.72;74.36;98884.63;5108636;28;20031;-53
2021/11/28 07:28:01;;;;;;;9.55;7.60;;;;;;;3.72;74.56;98886.34;5089377;28;20041;-51
2021/11/28 07:30:26;;;;;;;8.98;7.10;;;;;;;3.70;74.53;98888.97;5087615;28;20030;-52
2021/11/28 07:32:52;;;;;;;8.90;7.05;;;;;;;3.70;74.03;98888.97;5085810;28;20046;-51
2021/11/28 07:35:17;;;;;;;9.65;7.57;;;;;;;3.69;74.23;98889.84;5106020;28;20114;-50
2021/11/28 07:37:43;;;;;;;8.80;7.28;;;;;;;3.70;74.46;98896.78;5103939;28;20058;-51
2021/11/28 07:40:09;;;;;;;9.35;7.25;;;;;;;3.68;74.36;98890.75;5086473;28;20028;-52
2021/11/28 07:42:34;;;;;;;10.20;8.18;;;;;;;3.68;74.89;98889.88;5106190;28;20061;-52
2021/11/28 07:45:00;;;;;;;11.75;7.80;;;;;;;3.68;75.18;98885.53;5087586;28;20027;-52
2021/11/28 07:47:25;;;;;;;9.40;7.28;;;;;;;3.69;75.00;98889.84;5105207;28;20024;-51
2021/11/28 07:49:50;;;;;;;9.70;8.07;;;;;;;3.68;74.27;98887.25;5111559;28;20023;-51
2021/11/28 07:52:16;;;;;;;10.18;7.35;;;;;;;3.67;75.08;98886.38;5110363;28;20043;-53
2021/11/28 07:54:41;;;;;;;11.98;8.60;;;;;;;3.67;74.81;98895.97;5086858;28;20054;-51
2021/11/28 07:57:07;;;;;;;11.43;8.82;;;;;;;3.66;74.66;98895.09;5102156;28;20028;-52
2021/11/28 07:59:34;;;;;;;10.18;7.90;;;;;;;3.66;74.23;98895.09;5065875;28;20030;-51
2021/11/28 08:01:59;;;;;;;10.40;8.40;;;;;;;3.63;74.40;98884.69;5101569;28;20032;-51
2021/11/28 08:04:25;;;;;;;11.65;8.95;;;;;;;3.66;74.21;98884.66;5103396;28;20100;-50
2021/11/28 08:06:50;;;;;;;11.77;8.80;;;;;;;3.63;73.80;98889.91;5099919;28;20016;-52
2021/11/28 08:09:15;;;;;;;11.55;8.77;;;;;;;3.65;74.57;98898.59;5087300;28;20023;-52
2021/11/28 08:11:41;;;;;;;10.25;8.52;;;;;;;3.65;74.91;98914.25;5104248;28;20027;-52
2021/11/28 08:14:06;;;;;;;11.68;9.40;;;;;;;3.64;74.07;98916.84;5104557;28;20024;-52
2021/11/28 08:16:31;;;;;;;12.32;8.65;;;;;;;3.66;74.41;98917.69;5106497;28;20051;-53
2021/11/28 08:18:57;;;;;;;12.23;9.32;;;;;;;3.64;73.59;98922.94;5100055;28;20043;-50
2021/11/28 08:21:26;;;;;;;11.55;8.75;;;;;;;3.64;74.41;98917.72;5103079;28;20059;-50
2021/11/28 08:23:53;;;;;;;11.25;9.18;;;;;;;3.63;74.19;98921.19;5088018;28;20028;-52
2021/11/28 08:26:18;;;;;;;10.20;8.40;;;;;;;3.63;73.91;98915.13;5088914;28;20027;-52
2021/11/28 08:28:44;;;;;;;11.38;9.07;;;;;;;3.62;74.22;98916.88;5088939;28;20031;-51
2021/11/28 08:31:10;;;;;;;11.55;7.88;;;;;;;3.62;74.05;98911.66;5108064;28;20502;-51
2021/11/28 08:33:35;;;;;;;10.52;9.00;;;;;;;3.63;74.48;98909.91;5104567;28;20027;-52
2021/11/28 08:36:00;;;;;;;10.15;8.27;;;;;;;3.61;74.04;98915.16;5102495;28;20039;-50
2021/11/28 08:38:26;;;;;;;9.35;8.35;;;;;;;3.60;73.89;98918.59;5087508;28;20372;-53
2021/11/28 08:40:51;;;;;;;11.98;9.35;;;;;;;3.61;74.17;98922.97;5085250;28;20024;-52
2021/11/28 08:43:16;;;;;;;13.65;10.05;;;;;;;3.59;74.04;98915.16;5107863;28;20032;-52
2021/11/28 08:45:42;;;;;;;12.73;9.80;;;;;;;3.61;74.57;98927.31;5108347;28;20045;-52
2021/11/28 08:48:07;;;;;;;13.23;10.50;;;;;;;3.58;74.35;98920.38;5106228;28;20488;-52
2021/11/28 08:50:33;;;;;;;12.50;9.23;;;;;;;3.58;74.59;98916.03;5101696;28;20548;-52
2021/11/28 08:52:58;;;;;;;11.43;9.07;;;;;;;3.58;74.10;98918.66;5108160;28;20055;-52
2021/11/28 08:55:24;;;;;;;12.07;9.43;;;;;;;3.58;74.12;98923.00;5103452;28;20376;-52
2021/11/28 08:57:49;;;;;;;11.15;8.93;;;;;;;3.59;73.98;98932.53;5100938;28;20023;-52
2021/11/28 09:00:15;;;;;;;13.20;9.52;;;;;;;3.58;74.28;98931.69;5101600;28;20474;-52
2021/11/28 09:02:41;;;;;;;11.23;9.05;;;;;;;3.59;73.88;98927.31;5082724;28;20020;-52
2021/11/28 09:05:07;;;;;;;10.73;8.68;;;;;;;3.60;74.15;98929.03;5104955;28;20028;-51
2021/11/28 09:07:32;;;;;;;11.90;8.77;;;;;;;3.60;74.37;98931.63;5107039;28;20020;-51
2021/11/28 09:09:58;;;;;;;12.27;8.57;;;;;;;3.59;73.91;98920.38;5095688;28;20012;-50
2021/11/28 09:12:23;;;;;;;8.88;7.93;;;;;;;3.62;74.22;98929.91;5078129;28;20020;-51
2021/11/28 09:14:49;;;;;;;11.82;8.98;;;;;;;3.62;74.16;98923.81;5107559;28;20685;-52
2021/11/28 09:17:14;;;;;;;11.20;8.30;;;;;;;3.61;73.86;98928.19;5074995;28;20031;-56
2021/11/28 09:19:53;;;;;;;9.05;8.07;;;;;;;3.64;74.07;98933.38;5084893;28;20027;-50
2021/11/28 09:22:25;;;;;;;10.15;8.15;;;;;;;3.64;73.81;98930.75;5101162;28;20028;-50
2021/11/28 09:24:50;;;;;;;10.07;8.65;;;;;;;3.65;74.21;98924.66;5102123;28;20433;-50
2021/11/28 09:27:17;;;;;;;9.75;8.65;;;;;;;3.64;74.52;98922.94;5083425;28;20024;-53
2021/11/28 09:29:45;;;;;;;10.63;8.57;;;;;;;3.64;74.63;98922.94;5100666;28;20080;-53
2021/11/28 09:32:11;;;;;;;10.52;8.43;;;;;;;3.64;74.48;98920.34;5090021;28;20042;-52
2021/11/28 09:34:37;;;;;;;11.18;8.63;;;;;;;3.62;74.28;98913.38;5086232;28;20355;-53
2021/11/28 09:37:03;;;;;;;10.55;8.25;;;;;;;3.63;74.26;98910.75;5103264;28;20107;-52
2021/11/28 09:39:28;;;;;;;11.27;8.50;;;;;;;3.63;74.46;98917.75;5091558;28;20028;-53
2021/11/28 09:41:59;;;;;;;10.48;7.75;;;;;;;3.64;74.32;98912.50;5102590;28;20555;-54
2021/11/28 09:44:28;;;;;;;9.30;7.57;;;;;;;3.64;74.37;98914.25;5105366;28;20020;-53
2021/11/28 09:46:53;;;;;;;8.57;7.63;;;;;;;3.64;74.72;98909.03;5102551;28;20051;-53
2021/11/28 09:49:20;;;;;;;9.73;7.30;;;;;;;3.64;74.39;98907.31;5101654;28;20069;-53
2021/11/28 09:51:46;;;;;;;9.40;7.78;;;;;;;3.63;74.46;98905.56;5082172;28;20039;-52
2021/11/28 09:54:12;;;;;;;9.68;7.88;;;;;;;3.65;74.04;98898.59;5104307;28;20030;-51
2021/11/28 09:56:39;;;;;;;10.05;7.38;;;;;;;3.65;74.17;98892.50;5085196;28;20036;-50
2021/11/28 09:59:05;;;;;;;10.13;8.70;;;;;;;3.66;75.00;98894.22;5086343;28;20020;-51
2021/11/28 10:01:32;;;;;;;10.00;7.65;;;;;;;3.66;74.08;98891.63;5099710;28;20115;-51
2021/11/28 10:03:59;;;;;;;11.85;8.65;;;;;;;3.66;74.78;98889.00;5100744;28;20027;-52
2021/11/28 10:06:25;;;;;;;9.50;7.60;;;;;;;3.66;74.62;98894.22;5083501;28;20047;-48
2021/11/28 10:08:50;;;;;;;9.40;7.50;;;;;;;3.66;74.77;98892.50;5096664;28;20057;-52
2021/11/28 10:11:18;;;;;;;10.13;7.50;;;;;;;3.67;74.59;98889.00;5081827;28;20031;-52
2021/11/28 10:13:50;;;;;;;9.70;7.38;;;;;;;3.67;74.88;98885.53;5095521;28;20036;-50
2021/11/28 10:16:16;;;;;;;10.05;8.30;;;;;;;3.67;74.27;98891.59;5100973;28;20047;-50
2021/11/28 10:18:43;;;;;;;10.35;7.32;;;;;;;3.66;74.41;98879.44;5080198;28;20386;-51
2021/11/28 10:21:08;;;;;;;8.32;6.88;;;;;;;3.66;74.43;98876.84;5101127;28;20024;-50
2021/11/28 10:23:34;;;;;;;10.00;7.72;;;;;;;3.68;74.67;98882.91;5104536;28;20106;-51
2021/11/28 10:26:18;;;;;;;10.93;8.05;;;;;;;3.69;74.48;98878.56;5093502;28;20059;-50
2021/11/28 10:29:02;;;;;;;10.50;7.82;;;;;;;3.68;74.72;98875.09;5081940;28;20479;-51
2021/11/28 10:31:27;;;;;;;10.10;7.93;;;;;;;3.68;74.70;98866.41;5100737;28;20043;-50
2021/11/28 10:33:53;;;;;;;8.82;7.28;;;;;;;3.68;74.32;98863.78;5083235;28;20058;-52
2021/11/28 10:36:19;;;;;;;8.43;6.93;;;;;;;3.70;74.87;98868.13;5110099;22;20044;-52
2021/11/28 10:38:45;;;;;;;9.55;7.32;;;;;;;3.68;74.54;98859.47;5065628;28;20032;-53
2021/11/28 10:41:22;;;;;;;10.20;7.72;;;;;;;3.71;74.68;98869.81;5046287;28;20028;-52
2021/11/28 10:43:48;;;;;;;10.45;8.10;;;;;;;3.71;74.76;98863.78;5067726;28;20498;-52
2021/11/28 10:46:30;;;;;;;10.60;7.63;;;;;;;3.71;75.28;98861.16;5067195;28;20076;-51
2021/11/28 10:49:08;;;;;;;10.88;7.60;;;;;;;3.75;75.35;98862.84;5066299;28;20023;-50
2021/11/28 10:51:37;;;;;;;13.60;10.18;;;;;;;3.68;76.35;98859.47;5065934;28;20024;-50
2021/11/28 10:54:23;;;;;;;17.73;10.32;;;;;;;3.67;76.27;98859.47;5053471;28;20036;-52
2021/11/28 10:57:05;;;;;;;14.27;9.32;;;;;;;3.70;77.08;98869.88;5064978;28;20051;-51
2021/11/28 10:59:31;;;;;;;13.45;10.32;;;;;;;3.67;75.75;98870.75;5056220;28;20404;-53
2021/11/28 11:01:56;;;;;;;14.95;10.05;;;;;;;3.67;76.29;98860.31;5064470;28;20028;-50
2021/11/28 11:04:22;;;;;;;14.82;10.02;;;;;;;3.65;76.40;98854.25;5068463;28;20078;-51
2021/11/28 11:07:11;;;;;;;12.20;8.45;;;;;;;3.70;77.03;98865.50;5067306;28;20648;-52
2021/11/28 11:09:41;;;;;;;12.52;8.85;;;;;;;3.69;76.60;98862.91;5040490;28;20103;-51
2021/11/28 11:12:21;;;;;;;11.77;9.57;;;;;;;3.69;76.90;98866.38;5045076;28;20024;-53
2021/11/28 11:14:49;;;;;;;12.43;8.98;;;;;;;3.70;75.91;98875.09;5048515;28;20089;-53
2021/11/28 11:17:14;;;;;;;10.77;7.78;;;;;;;3.69;76.57;98869.00;5063890;28;20052;-53
2021/11/28 11:19:47;;;;;;;12.95;8.80;;;;;;;3.71;76.84;98869.81;5066727;28;20031;-53
2021/11/28 11:22:26;;;;;;;12.85;8.45;;;;;;;3.71;76.06;98879.41;5063411;28;20547;-50
2021/11/28 11:24:53;;;;;;;11.57;8.05;;;;;;;3.74;76.39;98870.69;5048630;28;20396;-51
2021/11/28 11:27:20;;;;;;;10.77;8.60;;;;;;;3.74;76.38;98868.09;5066147;28;20494;-51
2021/11/28 11:29:50;;;;;;;12.05;8.30;;;;;;;3.74;76.74;98870.69;5068466;28;20024;-51
2021/11/28 11:32:26;;;;;;;10.60;8.25;;;;;;;3.74;76.91;98871.56;5066143;28;20021;-53
2021/11/28 11:34:58;;;;;;;10.57;8.38;;;;;;;3.73;75.77;98862.00;5045272;28;20115;-51
2021/11/28 11:37:26;;;;;;;9.38;8.38;;;;;;;3.74;76.41;98866.34;5046890;28;20056;-51
2021/11/28 11:39:54;;;;;;;9.98;8.27;;;;;;;3.73;77.20;98869.81;5068029;28;20026;-52
2021/11/28 11:42:22;;;;;;;9.50;7.75;;;;;;;3.74;76.95;98875.91;5069883;28;20112;-51